sensor_id;sensor_type;location;lat;lon;timestamp;pressure;altitude;pressure_sealevel;temperature;humidity
22104;BME280;11218;48.886;9.426;2023-04-06T00:01:04;98257.88;;;2.93;61.65
22104;BME280;11218;48.886;9.426;2023-04-06T00:03:32;98253.59;;;2.92;61.42
22104;BME280;11218;48.886;9.426;2023-04-06T00:06:00;98254.41;;;2.93;61.14
22104;BME280;11218;48.886;9.426;2023-04-06T00:08:28;98254.41;;;2.93;61.12
22104;BME280;11218;48.886;9.426;2023-04-06T00:10:57;98250.75;;;2.94;61.57
22104;BME280;11218;48.886;9.426;2023-04-06T00:13:25;98248.91;;;2.94;61.56
22104;BME280;11218;48.886;9.426;2023-04-06T00:15:54;98241.53;;;2.96;62.22
22104;BME280;11218;48.886;9.426;2023-04-06T00:18:22;98249.28;;;2.98;62.72
22104;BME280;11218;48.886;9.426;2023-04-06T00:20:51;98243.78;;;3.00;63.05
22104;BME280;11218;48.886;9.426;2023-04-06T00:23:19;98245.22;;;3.02;63.10
22104;BME280;11218;48.886;9.426;2023-04-06T00:25:47;98239.91;;;3.02;63.16
22104;BME280;11218;48.886;9.426;2023-04-06T00:28:15;98236.63;;;3.00;63.00
22104;BME280;11218;48.886;9.426;2023-04-06T00:30:43;98236.22;;;2.96;63.17
22104;BME280;11218;48.886;9.426;2023-04-06T00:33:13;98237.06;;;2.97;62.90
22104;BME280;11218;48.886;9.426;2023-04-06T00:35:41;98238.47;;;2.93;63.46
22104;BME280;11218;48.886;9.426;2023-04-06T00:38:09;98240.50;;;2.91;63.75
22104;BME280;11218;48.886;9.426;2023-04-06T00:40:37;98238.03;;;2.89;64.06
22104;BME280;11218;48.886;9.426;2023-04-06T00:43:06;98229.97;;;2.76;64.17
22104;BME280;11218;48.886;9.426;2023-04-06T00:45:35;98231.81;;;2.76;64.52
22104;BME280;11218;48.886;9.426;2023-04-06T00:48:04;98227.50;;;2.75;64.28
22104;BME280;11218;48.886;9.426;2023-04-06T00:50:34;98232.81;;;2.75;64.30
22104;BME280;11218;48.886;9.426;2023-04-06T00:53:02;98232.41;;;2.71;64.86
22104;BME280;11218;48.886;9.426;2023-04-06T00:55:30;98235.69;;;2.73;64.24
22104;BME280;11218;48.886;9.426;2023-04-06T00:57:59;98234.22;;;2.71;64.56
22104;BME280;11218;48.886;9.426;2023-04-06T01:00:27;98230.94;;;2.69;64.62
22104;BME280;11218;48.886;9.426;2023-04-06T01:02:55;98229.94;;;2.70;64.22
22104;BME280;11218;48.886;9.426;2023-04-06T01:05:23;98222.78;;;2.70;64.88
22104;BME280;11218;48.886;9.426;2023-04-06T01:07:53;98232.59;;;2.70;64.21
22104;BME280;11218;48.886;9.426;2023-04-06T01:10:24;98228.09;;;2.70;64.86
22104;BME280;11218;48.886;9.426;2023-04-06T01:12:53;98225.44;;;2.70;64.50
22104;BME280;11218;48.886;9.426;2023-04-06T01:15:21;98222.16;;;2.68;64.40
22104;BME280;11218;48.886;9.426;2023-04-06T01:17:49;98215.00;;;2.69;65.08
22104;BME280;11218;48.886;9.426;2023-04-06T01:20:18;98223.56;;;2.64;64.36
22104;BME280;11218;48.886;9.426;2023-04-06T01:22:47;98219.66;;;2.60;64.24
22104;BME280;11218;48.886;9.426;2023-04-06T01:25:16;98214.34;;;2.60;64.95
22104;BME280;11218;48.886;9.426;2023-04-06T01:27:44;98212.69;;;2.59;65.05
22104;BME280;11218;48.886;9.426;2023-04-06T01:30:12;98200.44;;;2.58;65.30
22104;BME280;11218;48.886;9.426;2023-04-06T01:32:41;98205.53;;;2.59;64.92
22104;BME280;11218;48.886;9.426;2023-04-06T01:35:09;98212.88;;;2.57;65.01
22104;BME280;11218;48.886;9.426;2023-04-06T01:37:37;98212.25;;;2.55;64.32
22104;BME280;11218;48.886;9.426;2023-04-06T01:40:08;98202.84;;;2.53;65.07
22104;BME280;11218;48.886;9.426;2023-04-06T01:42:37;98204.44;;;2.47;64.95
22104;BME280;11218;48.886;9.426;2023-04-06T01:45:07;98202.16;;;2.44;64.57
22104;BME280;11218;48.886;9.426;2023-04-06T01:47:35;98208.06;;;2.40;64.66
22104;BME280;11218;48.886;9.426;2023-04-06T01:50:03;98200.28;;;2.38;64.93
22104;BME280;11218;48.886;9.426;2023-04-06T01:52:33;98196.19;;;2.36;64.96
22104;BME280;11218;48.886;9.426;2023-04-06T01:55:01;98190.88;;;2.36;65.48
22104;BME280;11218;48.886;9.426;2023-04-06T01:57:30;98195.56;;;2.34;65.48
22104;BME280;11218;48.886;9.426;2023-04-06T01:59:58;98194.94;;;2.31;64.86
22104;BME280;11218;48.886;9.426;2023-04-06T02:02:26;98191.84;;;2.28;64.91
22104;BME280;11218;48.886;9.426;2023-04-06T02:04:55;98192.66;;;2.28;65.21
22104;BME280;11218;48.886;9.426;2023-04-06T02:07:24;98196.34;;;2.27;65.18
22104;BME280;11218;48.886;9.426;2023-04-06T02:09:54;98194.88;;;2.25;66.07
22104;BME280;11218;48.886;9.426;2023-04-06T02:12:23;98194.50;;;2.28;65.94
22104;BME280;11218;48.886;9.426;2023-04-06T02:14:53;98187.94;;;2.24;65.63
22104;BME280;11218;48.886;9.426;2023-04-06T02:17:21;98191.19;;;2.19;64.55
22104;BME280;11218;48.886;9.426;2023-04-06T02:19:49;98186.69;;;2.20;65.03
22104;BME280;11218;48.886;9.426;2023-04-06T02:22:18;98185.44;;;2.16;65.81
22104;BME280;11218;48.886;9.426;2023-04-06T02:24:46;98192.78;;;2.14;65.16
22104;BME280;11218;48.886;9.426;2023-04-06T02:27:14;98191.13;;;2.13;65.84
22104;BME280;11218;48.886;9.426;2023-04-06T02:29:42;98180.72;;;2.11;65.91
22104;BME280;11218;48.886;9.426;2023-04-06T02:32:11;98183.56;;;2.10;65.92
22104;BME280;11218;48.886;9.426;2023-04-06T02:34:40;98177.63;;;2.08;65.49
22104;BME280;11218;48.886;9.426;2023-04-06T02:37:08;98184.94;;;2.06;65.44
22104;BME280;11218;48.886;9.426;2023-04-06T02:39:36;98184.75;;;2.07;65.67
22104;BME280;11218;48.886;9.426;2023-04-06T02:42:04;98178.81;;;2.05;66.08
22104;BME280;11218;48.886;9.426;2023-04-06T02:44:32;98178.19;;;2.03;66.52
22104;BME280;11218;48.886;9.426;2023-04-06T02:47:00;98174.91;;;2.01;65.39
22104;BME280;11218;48.886;9.426;2023-04-06T02:49:30;98180.59;;;1.98;65.56
22104;BME280;11218;48.886;9.426;2023-04-06T02:51:58;98183.81;;;1.93;65.51
22104;BME280;11218;48.886;9.426;2023-04-06T02:54:26;98175.88;;;1.93;65.89
22104;BME280;11218;48.886;9.426;2023-04-06T02:56:54;98175.03;;;1.93;65.38
22104;BME280;11218;48.886;9.426;2023-04-06T02:59:22;98173.41;;;1.92;66.12
22104;BME280;11218;48.886;9.426;2023-04-06T03:01:50;98169.09;;;1.91;66.90
22104;BME280;11218;48.886;9.426;2023-04-06T03:04:18;98170.13;;;1.90;65.87
22104;BME280;11218;48.886;9.426;2023-04-06T03:06:50;98174.59;;;1.89;65.84
22104;BME280;11218;48.886;9.426;2023-04-06T03:09:18;98163.38;;;1.87;66.72
22104;BME280;11218;48.886;9.426;2023-04-06T03:11:46;98171.31;;;1.87;66.23
22104;BME280;11218;48.886;9.426;2023-04-06T03:14:14;98161.91;;;1.85;65.68
22104;BME280;11218;48.886;9.426;2023-04-06T03:16:43;98170.88;;;1.84;66.20
22104;BME280;11218;48.886;9.426;2023-04-06T03:19:12;98166.78;;;1.81;66.59
22104;BME280;11218;48.886;9.426;2023-04-06T03:21:40;98166.97;;;1.80;66.70
22104;BME280;11218;48.886;9.426;2023-04-06T03:24:09;98169.00;;;1.78;66.90
22104;BME280;11218;48.886;9.426;2023-04-06T03:26:37;98162.88;;;1.77;66.34
22104;BME280;11218;48.886;9.426;2023-04-06T03:29:05;98162.88;;;1.77;65.84
22104;BME280;11218;48.886;9.426;2023-04-06T03:31:34;98171.97;;;1.68;66.09
22104;BME280;11218;48.886;9.426;2023-04-06T03:34:02;98173.47;;;1.56;66.43
22104;BME280;11218;48.886;9.426;2023-04-06T03:36:30;98173.66;;;1.54;67.15
22104;BME280;11218;48.886;9.426;2023-04-06T03:38:58;98175.88;;;1.51;66.66
22104;BME280;11218;48.886;9.426;2023-04-06T03:41:28;98182.63;;;1.53;67.21
22104;BME280;11218;48.886;9.426;2023-04-06T03:43:56;98177.31;;;1.53;66.79
22104;BME280;11218;48.886;9.426;2023-04-06T03:46:24;98183.44;;;1.54;67.07
22104;BME280;11218;48.886;9.426;2023-04-06T03:48:52;98185.28;;;1.53;67.26
22104;BME280;11218;48.886;9.426;2023-04-06T03:51:20;98182.63;;;1.53;67.77
22104;BME280;11218;48.886;9.426;2023-04-06T03:53:48;98187.94;;;1.53;67.39
22104;BME280;11218;48.886;9.426;2023-04-06T03:56:16;98183.59;;;1.46;67.02
22104;BME280;11218;48.886;9.426;2023-04-06T03:58:47;98195.91;;;1.32;66.18
22104;BME280;11218;48.886;9.426;2023-04-06T04:01:17;98187.31;;;1.30;65.63
22104;BME280;11218;48.886;9.426;2023-04-06T04:03:45;98195.53;;;1.35;67.02
22104;BME280;11218;48.886;9.426;2023-04-06T04:06:17;98195.63;;;1.27;66.72
22104;BME280;11218;48.886;9.426;2023-04-06T04:08:45;98197.09;;;1.29;66.69
22104;BME280;11218;48.886;9.426;2023-04-06T04:11:13;98198.53;;;1.32;67.02
22104;BME280;11218;48.886;9.426;2023-04-06T04:13:42;98191.34;;;1.26;67.27
22104;BME280;11218;48.886;9.426;2023-04-06T04:16:12;98195.00;;;1.25;67.68
22104;BME280;11218;48.886;9.426;2023-04-06T04:18:40;98198.84;;;1.22;67.24
22104;BME280;11218;48.886;9.426;2023-04-06T04:21:10;98202.03;;;1.18;66.48
22104;BME280;11218;48.886;9.426;2023-04-06T04:23:38;98198.94;;;1.14;67.13
22104;BME280;11218;48.886;9.426;2023-04-06T04:26:06;98202.59;;;1.13;67.55
22104;BME280;11218;48.886;9.426;2023-04-06T04:28:34;98199.94;;;1.13;67.02
22104;BME280;11218;48.886;9.426;2023-04-06T04:31:02;98200.50;;;1.09;66.84
22104;BME280;11218;48.886;9.426;2023-04-06T04:33:32;98206.00;;;1.07;65.36
22104;BME280;11218;48.886;9.426;2023-04-06T04:36:00;98209.72;;;1.13;66.88
22104;BME280;11218;48.886;9.426;2023-04-06T04:38:28;98204.69;;;1.18;66.51
22104;BME280;11218;48.886;9.426;2023-04-06T04:40:57;98201.22;;;1.17;66.58
22104;BME280;11218;48.886;9.426;2023-04-06T04:43:25;98203.44;;;1.14;66.40
22104;BME280;11218;48.886;9.426;2023-04-06T04:45:53;98206.72;;;1.16;66.48
22104;BME280;11218;48.886;9.426;2023-04-06T04:48:21;98206.44;;;1.11;66.29
22104;BME280;11218;48.886;9.426;2023-04-06T04:50:50;98202.78;;;1.12;67.45
22104;BME280;11218;48.886;9.426;2023-04-06T04:53:19;98203.63;;;1.12;66.68
22104;BME280;11218;48.886;9.426;2023-04-06T04:55:50;98209.28;;;1.09;66.35
22104;BME280;11218;48.886;9.426;2023-04-06T04:58:20;98200.63;;;1.01;65.94
22104;BME280;11218;48.886;9.426;2023-04-06T05:00:50;98206.47;;;0.96;65.98
22104;BME280;11218;48.886;9.426;2023-04-06T05:03:22;98207.00;;;0.91;67.05
22104;BME280;11218;48.886;9.426;2023-04-06T05:05:55;98214.13;;;0.91;65.86
22104;BME280;11218;48.886;9.426;2023-04-06T05:08:25;98221.09;;;0.92;66.58
22104;BME280;11218;48.886;9.426;2023-04-06T05:10:54;98212.41;;;0.98;66.18
22104;BME280;11218;48.886;9.426;2023-04-06T05:13:25;98212.59;;;0.96;66.58
22104;BME280;11218;48.886;9.426;2023-04-06T05:15:55;98221.44;;;1.04;67.21
22104;BME280;11218;48.886;9.426;2023-04-06T05:18:26;98225.56;;;1.06;66.82
22104;BME280;11218;48.886;9.426;2023-04-06T05:20:59;98222.16;;;1.12;66.80
22104;BME280;11218;48.886;9.426;2023-04-06T05:23:29;98213.31;;;1.05;65.84
22104;BME280;11218;48.886;9.426;2023-04-06T05:25:59;98233.03;;;1.17;66.30
22104;BME280;11218;48.886;9.426;2023-04-06T05:28:29;98227.09;;;1.15;66.03
22104;BME280;11218;48.886;9.426;2023-04-06T05:30:59;98231.03;;;1.19;66.83
22104;BME280;11218;48.886;9.426;2023-04-06T05:33:29;98230.38;;;1.17;67.18
22104;BME280;11218;48.886;9.426;2023-04-06T05:36:00;98240.63;;;1.20;66.70
22104;BME280;11218;48.886;9.426;2023-04-06T05:38:31;98232.84;;;1.19;66.37
22104;BME280;11218;48.886;9.426;2023-04-06T05:41:02;98239.25;;;1.24;66.68
22104;BME280;11218;48.886;9.426;2023-04-06T05:43:32;98237.13;;;1.20;66.07
22104;BME280;11218;48.886;9.426;2023-04-06T05:46:00;98245.09;;;1.20;66.71
22104;BME280;11218;48.886;9.426;2023-04-06T05:48:28;98247.56;;;1.21;66.35
22104;BME280;11218;48.886;9.426;2023-04-06T05:50:56;98240.81;;;1.19;65.76
22104;BME280;11218;48.886;9.426;2023-04-06T05:53:26;98236.31;;;1.19;66.17
22104;BME280;11218;48.886;9.426;2023-04-06T05:55:55;98243.25;;;1.20;66.87
22104;BME280;11218;48.886;9.426;2023-04-06T05:58:23;98241.88;;;1.24;66.55
22104;BME280;11218;48.886;9.426;2023-04-06T06:00:56;98235.84;;;1.30;65.93
22104;BME280;11218;48.886;9.426;2023-04-06T06:03:24;98236.28;;;1.34;66.20
22104;BME280;11218;48.886;9.426;2023-04-06T06:05:52;98235.19;;;1.43;66.44
22104;BME280;11218;48.886;9.426;2023-04-06T06:08:20;98240.97;;;1.53;66.88
22104;BME280;11218;48.886;9.426;2023-04-06T06:10:50;98249.44;;;1.63;65.81
22104;BME280;11218;48.886;9.426;2023-04-06T06:13:18;98241.94;;;1.67;66.13
22104;BME280;11218;48.886;9.426;2023-04-06T06:15:49;98247.94;;;1.76;66.64
22104;BME280;11218;48.886;9.426;2023-04-06T06:18:21;98248.84;;;1.83;67.13
22104;BME280;11218;48.886;9.426;2023-04-06T06:20:51;98251.44;;;1.97;66.39
22104;BME280;11218;48.886;9.426;2023-04-06T06:23:24;98253.97;;;2.06;66.19
22104;BME280;11218;48.886;9.426;2023-04-06T06:25:56;98253.22;;;2.12;65.75
22104;BME280;11218;48.886;9.426;2023-04-06T06:28:25;98245.50;;;2.17;65.54
22104;BME280;11218;48.886;9.426;2023-04-06T06:30:56;98252.53;;;2.31;65.98
22104;BME280;11218;48.886;9.426;2023-04-06T06:33:27;98250.81;;;2.45;65.35
22104;BME280;11218;48.886;9.426;2023-04-06T06:35:57;98257.22;;;2.57;64.64
22104;BME280;11218;48.886;9.426;2023-04-06T06:38:27;98251.63;;;2.73;64.55
22104;BME280;11218;48.886;9.426;2023-04-06T06:40:59;98252.78;;;2.98;64.33
22104;BME280;11218;48.886;9.426;2023-04-06T06:43:30;98253.34;;;3.28;63.54
22104;BME280;11218;48.886;9.426;2023-04-06T06:46:01;98258.56;;;3.56;61.87
22104;BME280;11218;48.886;9.426;2023-04-06T06:48:31;98244.28;;;3.84;60.65
22104;BME280;11218;48.886;9.426;2023-04-06T06:51:03;98239.00;;;4.10;60.03
22104;BME280;11218;48.886;9.426;2023-04-06T06:53:33;98253.38;;;4.36;58.85
22104;BME280;11218;48.886;9.426;2023-04-06T06:56:05;98244.13;;;4.58;58.08
22104;BME280;11218;48.886;9.426;2023-04-06T06:58:37;98247.16;;;4.88;57.69
22104;BME280;11218;48.886;9.426;2023-04-06T07:01:07;98234.00;;;5.06;55.08
22104;BME280;11218;48.886;9.426;2023-04-06T07:03:38;98241.50;;;5.29;54.42
22104;BME280;11218;48.886;9.426;2023-04-06T07:06:08;98243.50;;;5.40;54.86
22104;BME280;11218;48.886;9.426;2023-04-06T07:08:38;98241.34;;;5.62;54.53
22104;BME280;11218;48.886;9.426;2023-04-06T07:11:10;98252.13;;;5.87;54.70
22104;BME280;11218;48.886;9.426;2023-04-06T07:13:42;98249.31;;;6.07;53.86
22104;BME280;11218;48.886;9.426;2023-04-06T07:16:13;98253.66;;;6.33;53.08
22104;BME280;11218;48.886;9.426;2023-04-06T07:18:44;98255.53;;;6.57;52.88
22104;BME280;11218;48.886;9.426;2023-04-06T07:21:13;98259.00;;;6.82;51.84
22104;BME280;11218;48.886;9.426;2023-04-06T07:23:43;98259.03;;;7.01;51.57
22104;BME280;11218;48.886;9.426;2023-04-06T07:26:16;98253.63;;;7.25;51.17
22104;BME280;11218;48.886;9.426;2023-04-06T07:28:49;98258.50;;;7.47;50.39
22104;BME280;11218;48.886;9.426;2023-04-06T07:31:19;98259.56;;;7.76;50.22
22104;BME280;11218;48.886;9.426;2023-04-06T07:33:49;98253.22;;;7.88;49.24
22104;BME280;11218;48.886;9.426;2023-04-06T07:36:20;98247.72;;;8.13;49.19
22104;BME280;11218;48.886;9.426;2023-04-06T07:38:51;98250.19;;;8.27;48.35
22104;BME280;11218;48.886;9.426;2023-04-06T07:41:21;98249.69;;;8.48;47.71
22104;BME280;11218;48.886;9.426;2023-04-06T07:43:50;98241.41;;;8.61;47.01
22104;BME280;11218;48.886;9.426;2023-04-06T07:46:18;98246.09;;;8.77;46.23
22104;BME280;11218;48.886;9.426;2023-04-06T07:48:46;98248.97;;;8.99;44.21
22104;BME280;11218;48.886;9.426;2023-04-06T07:51:16;98247.34;;;8.98;44.25
22104;BME280;11218;48.886;9.426;2023-04-06T07:53:45;98243.84;;;9.09;44.95
22104;BME280;11218;48.886;9.426;2023-04-06T07:56:13;98243.34;;;9.24;44.27
22104;BME280;11218;48.886;9.426;2023-04-06T07:58:43;98245.09;;;9.42;44.92
22104;BME280;11218;48.886;9.426;2023-04-06T08:01:11;98242.13;;;9.55;44.20
22104;BME280;11218;48.886;9.426;2023-04-06T08:03:40;98234.91;;;9.72;42.75
22104;BME280;11218;48.886;9.426;2023-04-06T08:06:08;98230.25;;;9.68;42.81
22104;BME280;11218;48.886;9.426;2023-04-06T08:08:36;98233.47;;;9.65;43.50
22104;BME280;11218;48.886;9.426;2023-04-06T08:11:04;98235.84;;;9.78;43.51
22104;BME280;11218;48.886;9.426;2023-04-06T08:13:33;98238.19;;;10.03;42.71
22104;BME280;11218;48.886;9.426;2023-04-06T08:16:04;98241.69;;;10.03;42.75
22104;BME280;11218;48.886;9.426;2023-04-06T08:18:32;98245.47;;;10.19;42.64
22104;BME280;11218;48.886;9.426;2023-04-06T08:21:00;98237.38;;;10.31;42.18
22104;BME280;11218;48.886;9.426;2023-04-06T08:23:28;98240.22;;;10.41;42.37
22104;BME280;11218;48.886;9.426;2023-04-06T08:25:56;98242.44;;;10.61;41.63
22104;BME280;11218;48.886;9.426;2023-04-06T08:28:24;98241.78;;;10.53;40.86
22104;BME280;11218;48.886;9.426;2023-04-06T08:30:52;98245.84;;;10.56;41.11
22104;BME280;11218;48.886;9.426;2023-04-06T08:33:22;98248.78;;;10.71;41.29
22104;BME280;11218;48.886;9.426;2023-04-06T08:35:50;98245.84;;;10.90;41.30
22104;BME280;11218;48.886;9.426;2023-04-06T08:38:18;98241.91;;;10.97;40.88
22104;BME280;11218;48.886;9.426;2023-04-06T08:40:46;98242.56;;;11.04;40.63
22104;BME280;11218;48.886;9.426;2023-04-06T08:43:17;98245.09;;;11.11;39.92
22104;BME280;11218;48.886;9.426;2023-04-06T08:45:48;98250.81;;;11.19;39.26
22104;BME280;11218;48.886;9.426;2023-04-06T08:48:16;98247.34;;;11.41;38.95
22104;BME280;11218;48.886;9.426;2023-04-06T08:50:46;98245.41;;;11.36;36.98
22104;BME280;11218;48.886;9.426;2023-04-06T08:53:15;98248.09;;;11.36;37.16
22104;BME280;11218;48.886;9.426;2023-04-06T08:55:44;98247.00;;;11.15;37.51
22104;BME280;11218;48.886;9.426;2023-04-06T08:58:13;98243.56;;;11.20;37.55
22104;BME280;11218;48.886;9.426;2023-04-06T09:00:57;98243.94;;;11.07;37.70
22104;BME280;11218;48.886;9.426;2023-04-06T09:03:25;98236.69;;;11.29;38.89
22104;BME280;11218;48.886;9.426;2023-04-06T09:05:56;98236.50;;;11.58;38.03
22104;BME280;11218;48.886;9.426;2023-04-06T09:08:24;98228.84;;;11.71;37.75
22104;BME280;11218;48.886;9.426;2023-04-06T09:10:52;98230.88;;;11.81;36.34
22104;BME280;11218;48.886;9.426;2023-04-06T09:13:20;98230.38;;;11.84;35.57
22104;BME280;11218;48.886;9.426;2023-04-06T09:15:58;98219.09;;;11.87;35.91
22104;BME280;11218;48.886;9.426;2023-04-06T09:18:30;98227.63;;;11.79;35.73
22104;BME280;11218;48.886;9.426;2023-04-06T09:21:01;98224.50;;;11.92;36.68
22104;BME280;11218;48.886;9.426;2023-04-06T09:23:30;98218.25;;;12.13;36.53
22104;BME280;11218;48.886;9.426;2023-04-06T09:26:09;98220.50;;;12.22;36.22
22104;BME280;11218;48.886;9.426;2023-04-06T09:28:48;98216.31;;;12.36;35.52
22104;BME280;11218;48.886;9.426;2023-04-06T09:31:22;98209.56;;;12.38;36.16
22104;BME280;11218;48.886;9.426;2023-04-06T09:33:51;98214.06;;;12.60;36.06
22104;BME280;11218;48.886;9.426;2023-04-06T09:36:29;98212.25;;;12.70;36.58
22104;BME280;11218;48.886;9.426;2023-04-06T09:38:59;98206.94;;;12.86;34.80
22104;BME280;11218;48.886;9.426;2023-04-06T09:41:29;98207.13;;;12.74;35.65
22104;BME280;11218;48.886;9.426;2023-04-06T09:44:04;98207.97;;;12.79;35.60
22104;BME280;11218;48.886;9.426;2023-04-06T09:46:34;98207.75;;;12.86;35.96
22104;BME280;11218;48.886;9.426;2023-04-06T09:49:21;98207.72;;;12.81;34.83
22104;BME280;11218;48.886;9.426;2023-04-06T09:51:56;98203.94;;;12.82;36.00
22104;BME280;11218;48.886;9.426;2023-04-06T09:54:28;98210.63;;;13.11;34.72
22104;BME280;11218;48.886;9.426;2023-04-06T09:57:03;98202.59;;;13.22;34.49
22104;BME280;11218;48.886;9.426;2023-04-06T09:59:41;98196.03;;;13.12;34.75
22104;BME280;11218;48.886;9.426;2023-04-06T10:02:18;98196.69;;;13.30;34.10
22104;BME280;11218;48.886;9.426;2023-04-06T10:04:57;98201.06;;;13.36;32.05
22104;BME280;11218;48.886;9.426;2023-04-06T10:07:28;98202.22;;;13.08;33.13
22104;BME280;11218;48.886;9.426;2023-04-06T10:09:56;98196.22;;;13.01;33.10
22104;BME280;11218;48.886;9.426;2023-04-06T10:12:27;98200.41;;;13.19;33.19
22104;BME280;11218;48.886;9.426;2023-04-06T10:14:56;98194.16;;;13.13;31.36
22104;BME280;11218;48.886;9.426;2023-04-06T10:17:24;98191.69;;;13.11;31.29
22104;BME280;11218;48.886;9.426;2023-04-06T10:19:54;98194.16;;;13.13;32.22
22104;BME280;11218;48.886;9.426;2023-04-06T10:22:32;98187.47;;;13.26;31.40
22104;BME280;11218;48.886;9.426;2023-04-06T10:25:04;98196.13;;;13.23;32.74
22104;BME280;11218;48.886;9.426;2023-04-06T10:27:32;98195.47;;;13.10;33.36
22104;BME280;11218;48.886;9.426;2023-04-06T10:30:02;98192.00;;;13.15;33.68
22104;BME280;11218;48.886;9.426;2023-04-06T10:32:34;98189.34;;;13.20;33.27
22104;BME280;11218;48.886;9.426;2023-04-06T10:35:08;98193.47;;;13.33;32.90
22104;BME280;11218;48.886;9.426;2023-04-06T10:37:52;98185.34;;;13.38;34.00
22104;BME280;11218;48.886;9.426;2023-04-06T10:40:22;98190.81;;;13.53;33.59
22104;BME280;11218;48.886;9.426;2023-04-06T10:42:53;98190.34;;;13.71;32.60
22104;BME280;11218;48.886;9.426;2023-04-06T10:45:23;98188.44;;;13.72;31.50
22104;BME280;11218;48.886;9.426;2023-04-06T10:47:53;98189.75;;;13.54;31.94
22104;BME280;11218;48.886;9.426;2023-04-06T10:50:22;98191.06;;;13.36;31.70
22104;BME280;11218;48.886;9.426;2023-04-06T10:53:00;98180.75;;;13.38;32.57
22104;BME280;11218;48.886;9.426;2023-04-06T10:55:29;98184.03;;;13.45;32.93
22104;BME280;11218;48.886;9.426;2023-04-06T10:57:57;98177.34;;;13.68;32.10
22104;BME280;11218;48.886;9.426;2023-04-06T11:00:25;98180.25;;;13.52;31.23
22104;BME280;11218;48.886;9.426;2023-04-06T11:03:08;98177.31;;;13.58;31.67
22104;BME280;11218;48.886;9.426;2023-04-06T11:05:37;98172.53;;;13.91;31.36
22104;BME280;11218;48.886;9.426;2023-04-06T11:08:07;98172.03;;;14.09;31.87
22104;BME280;11218;48.886;9.426;2023-04-06T11:10:35;98173.63;;;14.30;31.82
22104;BME280;11218;48.886;9.426;2023-04-06T11:13:03;98167.97;;;14.47;30.98
22104;BME280;11218;48.886;9.426;2023-04-06T11:15:34;98166.09;;;14.63;31.06
22104;BME280;11218;48.886;9.426;2023-04-06T11:18:05;98166.88;;;14.84;30.55
22104;BME280;11218;48.886;9.426;2023-04-06T11:20:33;98167.63;;;14.94;29.86
22104;BME280;11218;48.886;9.426;2023-04-06T11:23:01;98157.41;;;14.66;28.31
22104;BME280;11218;48.886;9.426;2023-04-06T11:25:31;98160.38;;;14.74;29.85
22104;BME280;11218;48.886;9.426;2023-04-06T11:28:00;98152.22;;;14.85;29.42
22104;BME280;11218;48.886;9.426;2023-04-06T11:30:29;98152.25;;;14.79;29.73
22104;BME280;11218;48.886;9.426;2023-04-06T11:33:00;98152.50;;;14.83;29.43
22104;BME280;11218;48.886;9.426;2023-04-06T11:35:30;98148.19;;;14.62;29.66
22104;BME280;11218;48.886;9.426;2023-04-06T11:38:02;98146.84;;;14.64;30.08
22104;BME280;11218;48.886;9.426;2023-04-06T11:40:32;98148.13;;;14.87;29.93
22104;BME280;11218;48.886;9.426;2023-04-06T11:43:00;98145.91;;;15.04;29.28
22104;BME280;11218;48.886;9.426;2023-04-06T11:45:39;98136.44;;;15.02;28.34
22104;BME280;11218;48.886;9.426;2023-04-06T11:48:17;98135.84;;;15.15;28.64
22104;BME280;11218;48.886;9.426;2023-04-06T11:50:47;98129.03;;;15.28;28.03
22104;BME280;11218;48.886;9.426;2023-04-06T11:53:15;98126.56;;;15.31;28.13
22104;BME280;11218;48.886;9.426;2023-04-06T11:55:45;98129.78;;;15.43;26.78
22104;BME280;11218;48.886;9.426;2023-04-06T11:58:14;98121.56;;;15.54;27.98
22104;BME280;11218;48.886;9.426;2023-04-06T12:00:43;98121.06;;;15.47;26.97
22104;BME280;11218;48.886;9.426;2023-04-06T12:03:13;98122.09;;;15.56;28.06
22104;BME280;11218;48.886;9.426;2023-04-06T12:05:43;98127.41;;;15.76;27.67
22104;BME280;11218;48.886;9.426;2023-04-06T12:08:12;98117.94;;;15.73;27.76
22104;BME280;11218;48.886;9.426;2023-04-06T12:10:40;98115.13;;;15.44;26.53
22104;BME280;11218;48.886;9.426;2023-04-06T12:13:09;98115.75;;;15.26;27.76
22104;BME280;11218;48.886;9.426;2023-04-06T12:15:37;98111.03;;;15.47;28.88
22104;BME280;11218;48.886;9.426;2023-04-06T12:18:06;98110.53;;;15.40;28.53
22104;BME280;11218;48.886;9.426;2023-04-06T12:20:34;98105.56;;;15.52;28.86
22104;BME280;11218;48.886;9.426;2023-04-06T12:23:04;98105.88;;;15.45;27.82
22104;BME280;11218;48.886;9.426;2023-04-06T12:25:32;98105.84;;;14.86;27.61
22104;BME280;11218;48.886;9.426;2023-04-06T12:28:00;98110.53;;;14.70;27.97
22104;BME280;11218;48.886;9.426;2023-04-06T12:30:30;98105.94;;;14.56;28.20
22104;BME280;11218;48.886;9.426;2023-04-06T12:32:58;98101.31;;;14.61;29.22
22104;BME280;11218;48.886;9.426;2023-04-06T12:35:26;98105.66;;;14.67;28.17
22104;BME280;11218;48.886;9.426;2023-04-06T12:37:55;98107.81;;;14.65;28.61
22104;BME280;11218;48.886;9.426;2023-04-06T12:40:23;98099.16;;;14.68;27.39
22104;BME280;11218;48.886;9.426;2023-04-06T12:42:51;98097.78;;;14.66;28.27
22104;BME280;11218;48.886;9.426;2023-04-06T12:45:19;98101.00;;;14.83;28.15
22104;BME280;11218;48.886;9.426;2023-04-06T12:47:48;98096.84;;;15.06;27.81
22104;BME280;11218;48.886;9.426;2023-04-06T12:50:17;98094.34;;;15.20;27.65
22104;BME280;11218;48.886;9.426;2023-04-06T12:52:46;98095.44;;;15.19;27.15
22104;BME280;11218;48.886;9.426;2023-04-06T12:55:15;98098.44;;;15.12;27.74
22104;BME280;11218;48.886;9.426;2023-04-06T12:57:44;98089.78;;;15.05;26.87
22104;BME280;11218;48.886;9.426;2023-04-06T13:00:14;98089.59;;;14.86;28.03
22104;BME280;11218;48.886;9.426;2023-04-06T13:02:42;98081.72;;;14.90;26.65
22104;BME280;11218;48.886;9.426;2023-04-06T13:05:15;98088.81;;;14.81;27.03
22104;BME280;11218;48.886;9.426;2023-04-06T13:07:45;98078.72;;;14.91;27.21
22104;BME280;11218;48.886;9.426;2023-04-06T13:10:14;98087.09;;;15.00;27.60
22104;BME280;11218;48.886;9.426;2023-04-06T13:12:42;98086.56;;;14.98;27.37
22104;BME280;11218;48.886;9.426;2023-04-06T13:15:10;98086.78;;;15.11;28.01
22104;BME280;11218;48.886;9.426;2023-04-06T13:17:39;98080.75;;;15.25;27.64
22104;BME280;11218;48.886;9.426;2023-04-06T13:20:07;98070.34;;;15.47;27.72